Time;durP1;ratioP1;P1;durP2;ratioP2;P2;SDS_P1;SDS_P2;PMS_P1;PMS_P2;Temp;Humidity;BMP_temperature;BMP_pressure;BME280_temperature;BME280_humidity;BME280_pressure;Samples;Min_cycle;Max_cycle;Signal;HPM_P1;HPM_P2
2023/05/07 00:01:32;;;;;;;9.60;6.22;;;;;;;11.71;78.38;99713.31;4962186;28;20084;-93
2023/05/07 00:03:58;;;;;;;7.68;5.05;;;;;;;11.52;78.07;99677.94;4963759;28;20037;-94
2023/05/07 00:06:23;;;;;;;9.80;5.03;;;;;;;11.67;77.21;99701.44;4947008;28;20420;-89
2023/05/07 00:08:49;;;;;;;7.10;5.00;;;;;;;11.56;77.53;99705.19;4947198;28;20066;-92
2023/05/07 00:11:14;;;;;;;9.10;5.28;;;;;;;11.67;77.71;99728.41;4949514;28;20026;-89
2023/05/07 00:13:40;;;;;;;8.02;5.10;;;;;;;11.36;78.35;99705.94;4997907;28;20022;-89
2023/05/07 00:16:05;;;;;;;9.27;5.20;;;;;;;11.30;78.39;99691.63;4964732;28;20026;-92
2023/05/07 00:18:31;;;;;;;6.82;4.93;;;;;;;11.11;79.36;99709.38;4965629;28;20163;-91
2023/05/07 00:20:56;;;;;;;7.43;5.03;;;;;;;11.06;79.89;99696.69;4981069;28;20033;-90
2023/05/07 00:23:23;;;;;;;7.80;4.63;;;;;;;11.17;78.95;99707.50;4965241;28;20018;-91
2023/05/07 00:25:48;;;;;;;7.75;5.15;;;;;;;11.27;79.20;99710.25;4981030;28;20117;-90
2023/05/07 00:28:13;;;;;;;9.30;5.18;;;;;;;11.17;79.21;99702.91;4981441;28;20089;-91
2023/05/07 00:30:39;;;;;;;9.07;5.25;;;;;;;11.11;79.36;99707.47;4965119;28;20025;-93
2023/05/07 00:33:05;;;;;;;10.23;5.57;;;;;;;11.12;79.62;99706.41;4982731;28;20030;-91
2023/05/07 00:35:30;;;;;;;6.95;5.18;;;;;;;11.02;79.40;99689.38;4982452;28;20030;-92
2023/05/07 00:37:56;;;;;;;8.15;5.10;;;;;;;10.88;79.67;99687.16;4982512;28;20022;-92
2023/05/07 00:40:21;;;;;;;12.48;5.07;;;;;;;10.98;79.63;99705.28;4966518;28;20029;-92
2023/05/07 00:42:48;;;;;;;7.13;4.80;;;;;;;10.78;80.00;99697.09;4966060;28;20030;-93
2023/05/07 00:45:14;;;;;;;7.22;5.18;;;;;;;10.75;80.20;99701.13;4982657;28;20018;-93
2023/05/07 00:47:40;;;;;;;7.55;4.90;;;;;;;10.81;79.56;99710.03;4966620;28;20032;-93
2023/05/07 00:50:07;;;;;;;11.52;5.50;;;;;;;10.70;80.20;99709.16;4966103;28;20088;-93
2023/05/07 00:52:32;;;;;;;8.10;4.82;;;;;;;10.51;79.97;99692.63;4966160;28;20168;-92
2023/05/07 00:54:58;;;;;;;8.20;5.35;;;;;;;10.53;79.71;99706.66;4982553;28;20084;-94
2023/05/07 00:57:24;;;;;;;6.88;5.20;;;;;;;10.34;80.11;99683.91;4966656;28;20525;-92
2023/05/07 00:59:51;;;;;;;8.55;5.32;;;;;;;10.49;79.87;99698.25;4982469;28;20036;-94
2023/05/07 01:02:16;;;;;;;12.23;5.70;;;;;;;10.51;80.07;99695.31;4982499;28;20033;-94
2023/05/07 01:04:42;;;;;;;8.93;5.65;;;;;;;10.60;79.46;99701.81;4966366;28;20025;-92
2023/05/07 01:07:07;;;;;;;8.90;5.30;;;;;;;10.45;79.92;99688.28;4965894;28;20104;-93
2023/05/07 01:09:35;;;;;;;7.35;4.95;;;;;;;10.45;79.38;99677.50;4981729;28;20137;-92
2023/05/07 01:12:00;;;;;;;9.52;4.93;;;;;;;10.40;79.06;99675.59;4966183;28;20025;-92
2023/05/07 01:14:26;;;;;;;9.10;5.40;;;;;;;10.24;79.74;99663.09;4966941;28;20026;-93
2023/05/07 01:16:51;;;;;;;9.25;5.47;;;;;;;10.39;79.74;99684.75;4966489;28;20029;-93
2023/05/07 01:19:17;;;;;;;9.35;5.57;;;;;;;10.27;80.14;99676.84;4965604;28;20026;-92
2023/05/07 01:21:45;;;;;;;6.85;5.05;;;;;;;10.18;80.11;99666.81;4966746;28;20048;-92
2023/05/07 01:24:11;;;;;;;8.75;5.72;;;;;;;10.20;80.11;99676.25;4965250;28;20034;-93
2023/05/07 01:26:37;;;;;;;10.52;5.15;;;;;;;10.19;80.12;99676.50;4982539;28;20029;-93
2023/05/07 01:29:03;;;;;;;8.75;5.07;;;;;;;10.26;79.79;99696.75;4965896;28;20053;-93
2023/05/07 01:31:28;;;;;;;9.52;6.20;;;;;;;10.23;80.16;99694.56;4982588;28;20033;-94
2023/05/07 01:33:53;;;;;;;7.30;5.15;;;;;;;10.27;80.17;99701.06;4966231;28;20040;-94
2023/05/07 01:36:19;;;;;;;8.27;5.97;;;;;;;10.20;79.88;99692.38;4966155;28;20033;-94
2023/05/07 01:38:45;;;;;;;9.05;5.50;;;;;;;10.27;80.04;99700.22;4965621;28;20030;-94
2023/05/07 01:41:11;;;;;;;10.68;5.57;;;;;;;10.15;80.60;99697.75;4966913;28;20029;-95
2023/05/07 01:43:37;;;;;;;11.20;6.03;;;;;;;10.00;80.43;99668.00;4966222;28;20030;-93
2023/05/07 01:46:02;;;;;;;10.95;5.72;;;;;;;10.14;80.77;99695.31;4998049;28;20529;-94
2023/05/07 01:48:28;;;;;;;9.00;5.60;;;;;;;10.17;80.48;99681.31;4981639;28;20472;-94
2023/05/07 01:50:53;;;;;;;12.68;6.07;;;;;;;10.01;80.36;99677.72;4982224;28;20460;-94
2023/05/07 01:53:19;;;;;;;8.10;5.20;;;;;;;9.88;80.79;99668.22;4983088;28;20468;-95
2023/05/07 01:55:45;;;;;;;10.63;6.45;;;;;;;9.89;81.27;99667.94;4966577;28;20416;-93
2023/05/07 01:58:10;;;;;;;7.95;5.60;;;;;;;9.76;81.41;99657.63;4965752;28;20030;-93
2023/05/07 02:00:36;;;;;;;8.65;5.97;;;;;;;9.70;81.31;99647.88;4982476;28;20026;-94
2023/05/07 02:03:01;;;;;;;19.58;13.00;;;;;;;9.67;81.32;99656.44;4998592;28;20439;-92
2023/05/07 02:05:27;;;;;;;15.20;7.10;;;;;;;9.64;81.35;99641.63;4982077;28;20029;-93
2023/05/07 02:07:52;;;;;;;13.18;6.53;;;;;;;9.59;81.25;99648.88;4981334;28;20479;-94
2023/05/07 02:10:18;;;;;;;12.98;7.45;;;;;;;9.73;82.42;99663.47;4982063;28;20030;-93
2023/05/07 02:12:46;;;;;;;15.23;7.63;;;;;;;9.76;82.35;99657.63;4967046;28;20399;-93
2023/05/07 02:15:11;;;;;;;14.10;7.70;;;;;;;9.66;82.26;99644.06;4965543;28;20029;-94
2023/05/07 02:17:39;;;;;;;24.55;9.55;;;;;;;9.59;82.46;99625.47;5014366;28;20264;-93
2023/05/07 02:20:07;;;;;;;23.10;9.57;;;;;;;9.77;82.80;99671.84;4997330;28;20435;-92
2023/05/07 02:22:32;;;;;;;21.20;10.07;;;;;;;9.57;83.55;99638.34;4981478;28;20048;-93
2023/05/07 02:24:57;;;;;;;24.58;9.80;;;;;;;9.54;83.41;99643.44;5000694;28;20037;-93
2023/05/07 02:27:23;;;;;;;25.73;10.23;;;;;;;9.62;83.63;99649.16;4968145;28;20042;-94
2023/05/07 02:29:48;;;;;;;18.90;10.05;;;;;;;9.71;82.69;99636.88;4985260;28;20030;-94
2023/05/07 02:32:14;;;;;;;28.83;11.38;;;;;;;9.76;83.00;99637.97;5018343;28;20033;-94
2023/05/07 02:34:39;;;;;;;21.02;11.00;;;;;;;9.77;83.18;99650.34;5001277;28;20025;-94
2023/05/07 02:37:05;;;;;;;27.13;12.40;;;;;;;9.82;83.11;99658.47;5000569;28;20030;-94
2023/05/07 02:39:30;;;;;;;27.70;12.68;;;;;;;9.88;83.52;99662.81;4985124;28;20443;-94
2023/05/07 02:41:56;;;;;;;26.52;13.68;;;;;;;9.73;83.91;99647.34;5000982;28;20033;-93
2023/05/07 02:44:21;;;;;;;26.90;14.18;;;;;;;9.85;84.22;99652.56;4968081;28;20026;-94
2023/05/07 02:46:47;;;;;;;23.75;13.73;;;;;;;9.91;84.25;99676.56;4967560;28;20020;-93
2023/05/07 02:49:12;;;;;;;25.92;12.70;;;;;;;9.84;83.32;99651.75;4984221;28;20411;-93
2023/05/07 02:51:37;;;;;;;29.17;13.50;;;;;;;9.68;84.26;99644.63;5000745;28;20407;-93
2023/05/07 02:54:03;;;;;;;34.60;13.82;;;;;;;9.84;83.82;99667.09;4984249;28;20033;-94
2023/05/07 02:56:29;;;;;;;27.85;13.27;;;;;;;9.73;84.38;99652.72;5000651;28;20080;-92
2023/05/07 02:58:54;;;;;;;24.92;13.88;;;;;;;9.70;84.44;99655.94;4968277;28;20026;-94
2023/05/07 03:01:20;;;;;;;24.70;12.65;;;;;;;9.72;84.54;99653.81;4968274;28;20450;-93
2023/05/07 03:03:46;;;;;;;22.48;12.35;;;;;;;9.69;84.21;99655.13;4968903;28;20482;-94
2023/05/07 03:06:11;;;;;;;24.55;12.20;;;;;;;9.66;84.71;99652.16;4967439;28;20018;-94
2023/05/07 03:08:36;;;;;;;24.58;12.07;;;;;;;9.51;84.82;99647.44;4968034;28;20034;-94
2023/05/07 03:11:02;;;;;;;21.35;12.00;;;;;;;9.55;85.07;99653.13;4984985;28;20029;-94
2023/05/07 03:13:28;;;;;;;27.92;11.98;;;;;;;9.55;85.04;99662.00;5001405;28;20037;-94
2023/05/07 03:15:53;;;;;;;25.10;11.75;;;;;;;9.48;84.81;99654.16;4984225;28;20029;-94
2023/05/07 03:18:18;;;;;;;23.05;11.38;;;;;;;9.60;84.23;99655.84;4999869;28;20034;-94
2023/05/07 03:20:44;;;;;;;24.58;12.02;;;;;;;9.45;84.38;99651.16;4986193;28;20037;-94
2023/05/07 03:23:10;;;;;;;24.58;11.82;;;;;;;9.48;84.93;99661.38;5018168;28;20025;-95
2023/05/07 03:25:35;;;;;;;23.80;11.35;;;;;;;9.52;84.80;99667.88;4983633;28;20037;-94
2023/05/07 03:28:01;;;;;;;31.73;13.15;;;;;;;9.58;84.44;99677.59;4983786;28;20547;-94
2023/05/07 03:30:26;;;;;;;24.35;12.43;;;;;;;9.36;84.84;99658.03;4984210;28;20072;-95
2023/05/07 03:32:52;;;;;;;23.63;12.32;;;;;;;9.39;84.78;99660.22;4984425;28;20029;-94
2023/05/07 03:35:17;;;;;;;27.48;12.40;;;;;;;9.36;84.67;99680.34;4966435;28;20026;-95
2023/05/07 03:37:43;;;;;;;25.45;12.55;;;;;;;9.33;85.04;99662.03;4983889;28;20044;-94
2023/05/07 03:40:10;;;;;;;27.83;12.60;;;;;;;9.46;84.62;99685.84;5000024;28;20029;-94
2023/05/07 03:42:35;;;;;;;23.52;11.98;;;;;;;9.52;84.23;99689.38;4967903;28;20033;-94
2023/05/07 03:45:01;;;;;;;21.15;11.43;;;;;;;9.49;84.29;99676.44;4983283;28;20018;-94
2023/05/07 03:47:26;;;;;;;25.10;11.18;;;;;;;9.44;83.49;99685.28;4983957;28;20026;-94
2023/05/07 03:49:53;;;;;;;22.13;10.60;;;;;;;9.48;83.20;99690.94;4967587;28;20030;-94
2023/05/07 03:52:23;;;;;;;16.77;10.07;;;;;;;9.42;82.75;99682.03;4967983;28;20069;-94
2023/05/07 03:54:49;;;;;;;30.27;11.35;;;;;;;9.41;82.52;99685.78;4984551;28;20026;-94
2023/05/07 03:57:15;;;;;;;23.63;10.75;;;;;;;9.33;82.18;99682.72;4983353;28;20403;-94
2023/05/07 03:59:40;;;;;;;22.77;12.05;;;;;;;9.34;82.28;99678.97;4983726;28;20022;-95
2023/05/07 04:02:06;;;;;;;24.20;11.15;;;;;;;9.36;82.66;99680.34;4983864;28;20049;-95
2023/05/07 04:04:32;;;;;;;20.50;10.80;;;;;;;9.39;82.67;99687.09;4983320;28;20033;-95
2023/05/07 04:06:59;;;;;;;20.75;10.95;;;;;;;9.45;82.80;99691.47;4983619;28;20619;-94
2023/05/07 04:10:18;;;;;;;18.30;10.07;;;;;;;9.59;82.53;99700.75;4967744;28;20076;-94
2023/05/07 04:12:44;;;;;;;16.50;9.35;;;;;;;9.43;82.46;99686.34;4998870;28;20450;-94
2023/05/07 04:15:10;;;;;;;18.67;9.95;;;;;;;9.48;82.36;99688.25;4999606;28;20033;-94
2023/05/07 04:17:35;;;;;;;20.98;10.45;;;;;;;9.51;82.48;99691.25;4967055;28;20112;-94
2023/05/07 04:20:01;;;;;;;21.70;10.75;;;;;;;9.51;82.23;99688.56;4983787;28;20034;-94
2023/05/07 04:22:26;;;;;;;22.08;9.80;;;;;;;9.45;81.95;99681.50;4982927;28;20083;-96
2023/05/07 04:24:52;;;;;;;17.25;10.05;;;;;;;9.65;81.88;99701.59;4983238;28;20053;-95
2023/05/07 04:27:17;;;;;;;15.98;9.80;;;;;;;9.71;81.81;99705.94;4963450;28;20108;-95
2023/05/07 04:29:46;;;;;;;15.07;9.20;;;;;;;9.90;81.21;99715.28;4964373;28;20038;-94
2023/05/07 04:32:12;;;;;;;12.43;8.00;;;;;;;10.00;81.01;99728.03;4964256;28;20035;-94
2023/05/07 04:34:37;;;;;;;18.25;9.70;;;;;;;9.93;81.42;99713.97;4979386;28;20027;-94
2023/05/07 04:37:03;;;;;;;19.10;9.30;;;;;;;9.91;80.82;99695.38;4963124;28;20034;-93
2023/05/07 04:39:29;;;;;;;14.73;8.40;;;;;;;10.14;79.78;99714.13;4964841;28;20030;-94
2023/05/07 04:41:54;;;;;;;17.13;7.97;;;;;;;10.26;79.43;99728.22;4997271;28;20031;-94
2023/05/07 04:44:20;;;;;;;14.82;8.07;;;;;;;10.34;78.79;99732.38;4964842;28;20031;-94
2023/05/07 04:46:46;;;;;;;15.02;8.10;;;;;;;10.36;78.56;99722.16;4963447;28;20027;-93
2023/05/07 04:49:11;;;;;;;16.45;10.52;;;;;;;10.44;77.90;99711.72;4963869;28;20030;-94
2023/05/07 04:51:38;;;;;;;15.68;6.85;;;;;;;10.56;77.46;99714.19;4962569;28;20026;-94
2023/05/07 04:54:03;;;;;;;14.70;6.65;;;;;;;10.65;76.26;99711.84;4979811;28;20408;-95
2023/05/07 04:56:29;;;;;;;9.63;5.50;;;;;;;10.82;74.80;99706.28;4963183;28;20026;-94
2023/05/07 04:58:55;;;;;;;11.10;5.40;;;;;;;11.09;73.85;99731.19;4963862;28;20026;-93
2023/05/07 05:01:20;;;;;;;10.70;5.30;;;;;;;11.15;73.51;99742.78;4962627;28;20089;-93
2023/05/07 05:03:46;;;;;;;9.25;5.10;;;;;;;11.20;72.74;99744.69;4961689;28;20487;-93
2023/05/07 05:06:11;;;;;;;6.63;4.78;;;;;;;11.16;73.17;99733.63;4961360;28;20476;-95
2023/05/07 05:08:37;;;;;;;14.68;5.85;;;;;;;11.13;73.37;99724.19;4962671;28;20029;-93
2023/05/07 05:11:02;;;;;;;12.40;6.05;;;;;;;11.41;72.85;99746.38;4964224;28;20034;-93
2023/05/07 05:13:28;;;;;;;9.05;5.60;;;;;;;11.52;72.23;99750.75;4978581;28;20088;-93
2023/05/07 05:15:53;;;;;;;6.03;4.28;;;;;;;11.67;70.70;99738.38;4961140;28;20036;-94
2023/05/07 05:18:36;;;;;;;8.85;4.65;;;;;;;11.83;69.45;99740.03;4961703;28;20527;-95
2023/05/07 05:21:02;;;;;;;7.95;3.70;;;;;;;11.89;69.97;99748.97;4962192;28;20026;-94
2023/05/07 05:23:27;;;;;;;7.53;4.10;;;;;;;11.88;69.75;99739.22;4962162;28;20128;-94
2023/05/07 05:25:57;;;;;;;9.75;4.55;;;;;;;12.11;69.82;99763.03;4961971;28;20053;-93
2023/05/07 05:28:23;;;;;;;6.38;4.22;;;;;;;12.17;68.92;99752.25;4962430;28;20505;-95
2023/05/07 05:30:49;;;;;;;7.47;3.85;;;;;;;12.33;68.95;99749.28;4961900;28;20030;-94
2023/05/07 05:33:14;;;;;;;11.25;4.68;;;;;;;12.28;69.54;99765.44;4981438;28;20026;-94
2023/05/07 05:35:40;;;;;;;9.50;4.38;;;;;;;12.34;68.95;99767.06;4973461;28;20037;-94
2023/05/07 05:38:05;;;;;;;7.80;4.15;;;;;;;12.15;68.76;99728.22;4962404;28;20058;-95
2023/05/07 05:40:31;;;;;;;11.02;5.70;;;;;;;12.29;69.32;99748.19;4960884;28;20026;-94
2023/05/07 05:42:57;;;;;;;11.05;6.55;;;;;;;12.40;70.31;99742.78;4962119;28;20040;-94
2023/05/07 05:45:22;;;;;;;14.20;6.95;;;;;;;12.39;69.33;99747.38;4961954;28;20026;-93
2023/05/07 05:47:48;;;;;;;8.75;6.22;;;;;;;12.53;69.26;99737.66;4979433;28;20504;-93
2023/05/07 05:50:13;;;;;;;10.77;6.65;;;;;;;12.71;69.61;99752.47;4976354;28;20030;-93
2023/05/07 05:52:38;;;;;;;10.35;6.38;;;;;;;12.74;69.21;99746.53;4976977;28;20022;-92
2023/05/07 05:55:05;;;;;;;14.50;7.05;;;;;;;12.78;68.97;99735.97;4992624;28;20022;-93
2023/05/07 05:57:30;;;;;;;15.55;7.97;;;;;;;13.04;68.18;99739.41;4976696;28;20062;-90
2023/05/07 05:59:55;;;;;;;18.50;8.43;;;;;;;13.14;67.95;99746.69;4975559;28;20023;-90
2023/05/07 06:02:21;;;;;;;18.50;9.73;;;;;;;13.33;66.82;99745.00;4992963;28;20023;-90
2023/05/07 06:04:46;;;;;;;18.08;10.30;;;;;;;13.44;66.87;99745.75;4976407;28;20030;-90
2023/05/07 06:07:12;;;;;;;20.13;11.65;;;;;;;13.41;66.51;99738.22;4960007;28;20026;-90
2023/05/07 06:09:37;;;;;;;15.57;9.10;;;;;;;13.54;65.28;99734.09;4976167;28;20037;-93
2023/05/07 06:12:03;;;;;;;12.30;8.23;;;;;;;13.70;64.16;99730.19;4993385;28;20029;-93
2023/05/07 06:14:28;;;;;;;13.40;7.63;;;;;;;13.80;63.97;99723.91;4976583;28;20030;-93
2023/05/07 06:16:54;;;;;;;12.38;5.50;;;;;;;13.99;63.19;99734.88;4960630;28;20034;-93
2023/05/07 06:19:23;;;;;;;11.57;5.90;;;;;;;14.02;62.57;99741.63;4976905;28;20093;-92
2023/05/07 06:21:48;;;;;;;9.98;5.50;;;;;;;14.15;62.31;99730.13;4961456;28;20026;-93
2023/05/07 06:24:14;;;;;;;8.43;5.72;;;;;;;14.39;61.46;99753.78;4960993;28;20026;-94
2023/05/07 06:26:39;;;;;;;9.88;6.15;;;;;;;14.37;61.41;99734.31;4960081;28;20030;-93
2023/05/07 06:29:05;;;;;;;9.02;6.05;;;;;;;14.43;60.46;99736.69;4959623;28;20061;-93
2023/05/07 06:31:31;;;;;;;8.27;5.68;;;;;;;14.59;59.87;99739.25;4976521;28;20030;-93
2023/05/07 06:33:57;;;;;;;9.38;4.97;;;;;;;14.62;58.90;99734.09;4977648;28;20030;-94
2023/05/07 06:36:22;;;;;;;7.38;4.63;;;;;;;14.67;57.50;99735.94;4960834;28;20050;-93
2023/05/07 06:38:48;;;;;;;10.55;5.00;;;;;;;14.85;57.10;99737.91;4960411;28;20034;-93
2023/05/07 06:41:13;;;;;;;7.18;4.85;;;;;;;14.94;57.05;99735.38;4960790;28;20037;-91
2023/05/07 06:43:39;;;;;;;8.57;4.93;;;;;;;15.20;56.74;99743.22;4960220;28;20041;-93
2023/05/07 06:46:05;;;;;;;8.05;4.93;;;;;;;15.38;56.18;99747.06;4976638;28;20084;-92
2023/05/07 06:48:30;;;;;;;6.30;4.75;;;;;;;15.38;56.22;99739.75;4960902;28;20098;-93
2023/05/07 06:50:57;;;;;;;6.10;4.28;;;;;;;15.57;55.52;99737.06;4963666;28;20084;-93
2023/05/07 06:53:23;;;;;;;5.85;4.30;;;;;;;15.63;54.40;99719.59;4979366;28;20087;-94
2023/05/07 06:55:48;;;;;;;6.80;3.58;;;;;;;15.81;53.51;99734.28;4979185;28;20058;-95
2023/05/07 06:58:14;;;;;;;6.63;3.38;;;;;;;15.89;52.57;99720.03;4961062;28;20069;-94
2023/05/07 07:00:40;;;;;;;3.92;3.42;;;;;;;16.03;51.83;99724.72;4977099;28;20026;-95
2023/05/07 07:03:06;;;;;;;4.25;2.80;;;;;;;16.12;49.63;99725.66;4992467;28;20523;-96
2023/05/07 07:05:31;;;;;;;4.35;2.70;;;;;;;16.21;48.95;99737.47;4977091;28;20019;-95
2023/05/07 07:07:57;;;;;;;7.07;2.90;;;;;;;16.19;49.21;99717.94;4977003;28;20030;-95
2023/05/07 07:10:22;;;;;;;7.10;3.38;;;;;;;16.34;50.15;99730.47;4962409;28;20022;-94
2023/05/07 07:12:48;;;;;;;3.08;1.90;;;;;;;16.51;47.54;99729.91;4995951;28;20034;-95
2023/05/07 07:15:14;;;;;;;3.75;2.22;;;;;;;16.57;45.95;99728.69;4979993;28;20027;-94
2023/05/07 07:17:39;;;;;;;4.97;2.72;;;;;;;16.74;47.04;99711.81;4981795;28;20392;-94
2023/05/07 07:20:05;;;;;;;4.05;2.65;;;;;;;16.86;46.79;99717.59;4964186;28;20026;-94
2023/05/07 07:22:31;;;;;;;13.85;6.25;;;;;;;17.07;46.01;99717.97;4963617;28;20037;-94
2023/05/07 07:24:56;;;;;;;4.25;2.80;;;;;;;17.20;45.33;99718.28;4963674;28;20023;-94
2023/05/07 07:27:22;;;;;;;2.50;1.70;;;;;;;17.43;44.62;99741.75;4996411;28;20047;-94
2023/05/07 07:29:47;;;;;;;2.40;1.70;;;;;;;17.52;43.47;99726.28;4979792;28;20034;-94
2023/05/07 07:32:13;;;;;;;4.82;1.98;;;;;;;17.50;43.46;99706.75;4979301;28;20451;-94
2023/05/07 07:34:38;;;;;;;3.35;1.77;;;;;;;17.58;43.17;99702.50;4979596;28;20503;-94
2023/05/07 07:37:05;;;;;;;3.20;1.83;;;;;;;17.69;43.07;99705.78;4978719;28;20081;-94
2023/05/07 07:39:31;;;;;;;5.05;2.10;;;;;;;17.61;43.09;99720.13;4978493;28;20030;-94
2023/05/07 07:41:56;;;;;;;6.25;1.80;;;;;;;17.58;42.99;99725.06;4980182;28;20081;-96
2023/05/07 07:44:22;;;;;;;2.78;1.67;;;;;;;17.67;42.73;99719.69;4978858;28;20034;-95
2023/05/07 07:46:47;;;;;;;3.30;1.80;;;;;;;17.97;42.88;99739.19;4962421;28;20500;-95
2023/05/07 07:49:13;;;;;;;3.38;1.70;;;;;;;17.89;42.23;99731.78;4978475;28;20026;-93
2023/05/07 07:51:38;;;;;;;2.25;1.67;;;;;;;17.86;41.22;99724.22;4962926;28;20027;-94
2023/05/07 07:54:04;;;;;;;4.90;1.80;;;;;;;17.93;41.40;99732.78;4962130;28;20073;-94
2023/05/07 07:56:29;;;;;;;3.80;1.70;;;;;;;18.20;41.75;99739.19;4994391;28;20576;-94
2023/05/07 07:58:55;;;;;;;2.15;1.30;;;;;;;18.09;39.14;99716.84;4978223;28;20049;-94
2023/05/07 08:01:20;;;;;;;6.93;1.65;;;;;;;18.25;39.44;99725.47;4978738;28;20499;-94
2023/05/07 08:03:45;;;;;;;5.50;1.83;;;;;;;18.21;40.26;99717.09;4978852;28;20026;-94
2023/05/07 08:06:11;;;;;;;3.35;1.70;;;;;;;18.32;38.93;99715.75;4962064;28;20420;-95
2023/05/07 08:08:36;;;;;;;2.13;1.50;;;;;;;18.40;37.77;99719.59;4978362;28;20033;-95
2023/05/07 08:11:02;;;;;;;2.30;1.52;;;;;;;18.62;35.64;99724.22;4978295;28;20049;-95
2023/05/07 08:13:27;;;;;;;2.05;1.13;;;;;;;18.56;34.86;99714.56;4962032;28;20396;-94
2023/05/07 08:15:53;;;;;;;2.50;1.15;;;;;;;18.58;34.61;99715.06;4961691;28;20027;-94
2023/05/07 08:18:18;;;;;;;2.88;1.23;;;;;;;18.64;35.78;99705.63;4978456;28;20476;-94
2023/05/07 08:20:44;;;;;;;1.98;1.30;;;;;;;18.77;35.56;99701.19;4961392;28;20022;-94
2023/05/07 08:23:09;;;;;;;3.33;1.35;;;;;;;18.73;34.01;99705.66;4962541;28;20026;-94
2023/05/07 08:25:34;;;;;;;4.32;1.10;;;;;;;18.76;33.87;99703.13;4978222;28;20395;-94
2023/05/07 08:28:00;;;;;;;4.65;1.40;;;;;;;18.75;34.65;99708.88;4977745;28;20058;-95
2023/05/07 08:30:26;;;;;;;4.38;1.67;;;;;;;18.91;33.80;99701.91;4993863;28;20026;-95
2023/05/07 08:32:52;;;;;;;4.00;1.30;;;;;;;19.00;33.20;99692.94;4961561;28;20037;-95
2023/05/07 08:35:17;;;;;;;3.58;1.50;;;;;;;19.05;32.37;99707.25;4977886;28;20034;-95
2023/05/07 08:37:43;;;;;;;3.85;1.05;;;;;;;19.09;32.87;99702.78;4977408;28;20053;-93
2023/05/07 08:40:09;;;;;;;4.72;1.15;;;;;;;19.26;32.46;99698.44;4961101;28;20034;-94
2023/05/07 08:42:36;;;;;;;1.55;0.90;;;;;;;19.29;30.48;99701.34;4977323;28;20050;-93
2023/05/07 08:45:02;;;;;;;3.53;1.55;;;;;;;19.35;31.56;99691.09;4961554;28;20026;-93
2023/05/07 08:47:29;;;;;;;3.53;1.60;;;;;;;19.39;30.62;99705.72;4960838;28;20030;-94
2023/05/07 08:49:55;;;;;;;2.35;1.17;;;;;;;19.35;30.40;99699.28;4978151;28;20026;-94
2023/05/07 08:52:21;;;;;;;2.67;1.95;;;;;;;19.39;30.54;99694.78;4977473;28;20030;-93
2023/05/07 08:54:47;;;;;;;6.07;1.10;;;;;;;19.19;31.01;99682.53;4961072;28;20026;-94
2023/05/07 08:57:13;;;;;;;2.33;1.10;;;;;;;19.29;29.98;99678.72;4961223;28;20416;-94
2023/05/07 08:59:38;;;;;;;3.88;1.20;;;;;;;19.42;29.94;99702.34;4962063;28;20030;-94
2023/05/07 09:02:05;;;;;;;1.50;1.15;;;;;;;19.35;30.38;99683.69;4961145;28;20027;-93
2023/05/07 09:04:32;;;;;;;1.60;1.10;;;;;;;19.50;30.54;99690.63;4960791;28;20026;-95
2023/05/07 09:07:03;;;;;;;3.47;1.20;;;;;;;19.57;29.88;99690.16;4961797;28;20041;-95
2023/05/07 09:09:28;;;;;;;2.40;1.40;;;;;;;19.44;30.38;99685.63;4979577;28;20030;-94
2023/05/07 09:12:00;;;;;;;1.67;1.15;;;;;;;19.65;31.49;99699.47;4961857;28;20034;-94
2023/05/07 09:14:25;;;;;;;1.92;1.30;;;;;;;19.70;31.40;99683.75;4962516;28;20058;-93
2023/05/07 09:16:54;;;;;;;3.08;1.08;;;;;;;19.83;31.74;99690.19;4961043;28;20037;-95
2023/05/07 09:19:24;;;;;;;3.13;1.30;;;;;;;20.00;32.85;99700.28;4963332;28;20057;-96
2023/05/07 09:21:49;;;;;;;2.80;1.58;;;;;;;19.93;31.65;99687.13;4964698;28;20022;-96
2023/05/07 09:24:15;;;;;;;1.45;1.13;;;;;;;19.98;31.24;99677.94;4963792;28;20096;-95
2023/05/07 09:26:41;;;;;;;4.18;1.55;;;;;;;19.91;31.97;99681.16;4962375;28;20026;-95
2023/05/07 09:29:10;;;;;;;3.45;1.30;;;;;;;19.96;32.77;99691.94;4960733;28;20054;-94
2023/05/07 09:31:38;;;;;;;4.28;1.50;;;;;;;19.76;31.98;99676.22;4960982;28;20500;-95
2023/05/07 09:34:07;;;;;;;2.92;1.40;;;;;;;19.87;31.75;99680.19;4959389;28;20018;-95
2023/05/07 09:36:33;;;;;;;3.67;2.90;;;;;;;20.09;31.24;99670.22;4960150;28;20026;-94
2023/05/07 09:39:02;;;;;;;2.67;1.48;;;;;;;20.18;31.25;99673.72;4976856;28;20407;-94
2023/05/07 09:41:28;;;;;;;4.80;1.55;;;;;;;20.14;31.78;99659.09;4960759;28;20030;-95
2023/05/07 09:43:54;;;;;;;4.00;1.63;;;;;;;20.13;32.49;99650.09;4977085;28;20045;-94
2023/05/07 09:46:24;;;;;;;3.42;1.50;;;;;;;20.19;32.25;99656.19;4960313;28;20481;-95
2023/05/07 09:48:49;;;;;;;4.18;1.70;;;;;;;20.36;31.59;99661.63;4977948;28;20019;-95
2023/05/07 09:51:41;;;;;;;2.55;1.38;;;;;;;20.43;32.19;99671.25;4977603;28;20022;-93
2023/05/07 09:54:09;;;;;;;2.47;1.10;;;;;;;20.17;32.56;99659.25;4963508;28;20038;-95
2023/05/07 09:56:34;;;;;;;3.33;1.30;;;;;;;20.28;32.73;99676.13;4961293;28;20027;-95
2023/05/07 09:59:00;;;;;;;3.17;1.52;;;;;;;20.33;33.41;99656.00;4978111;28;20455;-96
2023/05/07 10:01:26;;;;;;;2.17;1.30;;;;;;;20.39;33.31;99647.28;4961743;28;20065;-95
2023/05/07 10:03:52;;;;;;;3.03;1.40;;;;;;;20.57;32.96;99650.75;4962468;28;20404;-96
2023/05/07 10:06:18;;;;;;;6.63;2.95;;;;;;;20.28;31.72;99639.78;4994701;28;20015;-95
2023/05/07 10:08:43;;;;;;;9.93;1.50;;;;;;;20.22;32.21;99633.66;4978049;28;20076;-95
2023/05/07 10:11:09;;;;;;;2.70;1.30;;;;;;;20.28;32.58;99637.03;4977158;28;20448;-95
2023/05/07 10:13:37;;;;;;;1.77;1.38;;;;;;;20.33;32.41;99634.91;4962248;28;20030;-96
2023/05/07 10:16:06;;;;;;;1.55;1.15;;;;;;;20.43;31.78;99628.28;4962370;28;20077;-96
2023/05/07 10:18:32;;;;;;;3.08;1.50;;;;;;;20.53;31.49;99616.97;4978699;28;20032;-95
2023/05/07 10:21:08;;;;;;;1.88;1.52;;;;;;;20.60;32.11;99621.97;4977565;28;20026;-95
2023/05/07 10:23:33;;;;;;;2.75;1.52;;;;;;;20.54;31.88;99625.97;4977355;28;20065;-93
2023/05/07 10:26:01;;;;;;;3.25;1.48;;;;;;;20.50;32.07;99622.28;4977484;28;20022;-95
2023/05/07 10:28:27;;;;;;;3.92;1.67;;;;;;;20.55;32.18;99614.72;4978560;28;20058;-91
2023/05/07 10:31:15;;;;;;;2.97;1.40;;;;;;;20.65;32.35;99608.09;4978019;28;20022;-93
2023/05/07 10:33:41;;;;;;;4.40;1.70;;;;;;;20.68;31.38;99601.16;4980911;28;20084;-93
2023/05/07 10:36:07;;;;;;;3.67;1.70;;;;;;;20.71;32.36;99605.97;4961400;28;20464;-93
2023/05/07 10:38:33;;;;;;;8.15;1.70;;;;;;;20.70;32.46;99596.97;4977067;28;20019;-94
2023/05/07 10:40:58;;;;;;;2.17;1.40;;;;;;;20.84;32.53;99598.66;4994290;28;20026;-95
2023/05/07 10:43:24;;;;;;;3.60;2.00;;;;;;;20.87;31.72;99592.53;4993779;28;20464;-94
2023/05/07 10:46:15;;;;;;;10.48;2.17;;;;;;;21.12;32.42;99618.09;4995879;28;20499;-93
2023/05/07 10:49:03;;;;;;;2.47;1.40;;;;;;;21.15;32.76;99617.47;4996938;28;20038;-95
2023/05/07 10:51:30;;;;;;;4.22;1.58;;;;;;;21.09;33.03;99605.91;4997453;28;20034;-93
2023/05/07 10:54:19;;;;;;;3.90;1.52;;;;;;;21.18;33.00;99609.34;4982397;28;20022;-95
2023/05/07 10:56:45;;;;;;;3.25;1.63;;;;;;;21.11;32.39;99603.63;4974229;28;20089;-95
2023/05/07 10:59:20;;;;;;;4.30;2.10;;;;;;;21.23;32.65;99607.56;4983229;28;20030;-95
2023/05/07 11:02:06;;;;;;;3.65;1.67;;;;;;;21.36;32.04;99599.06;4999812;28;20022;-96
2023/05/07 11:04:34;;;;;;;5.43;1.80;;;;;;;21.17;31.93;99577.66;4983279;28;20085;-95
2023/05/07 11:07:06;;;;;;;5.50;1.90;;;;;;;21.34;32.02;99604.09;4982132;28;20101;-96
2023/05/07 11:09:53;;;;;;;3.55;1.60;;;;;;;21.34;32.22;99606.03;4997003;28;20035;-94
2023/05/07 11:12:40;;;;;;;2.00;1.35;;;;;;;21.21;31.98;99596.97;4996717;28;20117;-94
2023/05/07 11:15:06;;;;;;;4.43;1.77;;;;;;;21.13;32.75;99587.66;4997502;28;20026;-96
2023/05/07 11:17:34;;;;;;;3.65;1.70;;;;;;;21.03;33.00;99568.91;4965345;28;20030;-95
2023/05/07 11:20:00;;;;;;;2.97;1.60;;;;;;;21.10;32.39;99582.03;4980720;28;20109;-94
2023/05/07 11:22:31;;;;;;;2.35;1.65;;;;;;;21.23;32.93;99600.16;4980130;28;20022;-95
2023/05/07 11:25:04;;;;;;;2.35;1.60;;;;;;;21.21;32.94;99586.00;4998035;28;20080;-94
2023/05/07 11:27:30;;;;;;;2.67;1.67;;;;;;;21.28;32.90;99588.19;4981211;28;20046;-95
2023/05/07 11:29:55;;;;;;;5.35;1.88;;;;;;;21.26;32.65;99561.13;4980511;28;20404;-94